sensor_id;sensor_type;location;lat;lon;timestamp;temperature;humidity
7206;DHT22;3644;53.480;10.004;2024-02-21T00:00:45;11.40;99.90
7206;DHT22;3644;53.480;10.004;2024-02-21T00:03:10;11.30;99.90
7206;DHT22;3644;53.480;10.004;2024-02-21T00:05:36;11.20;99.90
7206;DHT22;3644;53.480;10.004;2024-02-21T00:08:02;11.40;99.90
7206;DHT22;3644;53.480;10.004;2024-02-21T00:10:28;11.40;99.90
7206;DHT22;3644;53.480;10.004;2024-02-21T00:12:54;11.30;99.90
7206;DHT22;3644;53.480;10.004;2024-02-21T00:15:19;11.40;99.90
7206;DHT22;3644;53.480;10.004;2024-02-21T00:17:46;11.50;99.90
7206;DHT22;3644;53.480;10.004;2024-02-21T00:20:12;11.40;99.90
7206;DHT22;3644;53.480;10.004;2024-02-21T00:22:37;11.40;99.90
7206;DHT22;3644;53.480;10.004;2024-02-21T00:25:03;11.50;99.90
7206;DHT22;3644;53.480;10.004;2024-02-21T00:27:28;11.40;99.90
7206;DHT22;3644;53.480;10.004;2024-02-21T00:29:54;11.40;99.90
7206;DHT22;3644;53.480;10.004;2024-02-21T00:32:19;11.30;99.90
7206;DHT22;3644;53.480;10.004;2024-02-21T00:34:46;11.40;99.90
7206;DHT22;3644;53.480;10.004;2024-02-21T00:37:11;11.50;99.90
7206;DHT22;3644;53.480;10.004;2024-02-21T00:39:37;11.40;99.90
7206;DHT22;3644;53.480;10.004;2024-02-21T00:42:02;11.20;99.90
7206;DHT22;3644;53.480;10.004;2024-02-21T00:44:28;11.30;99.90
7206;DHT22;3644;53.480;10.004;2024-02-21T00:46:53;11.40;99.90
7206;DHT22;3644;53.480;10.004;2024-02-21T00:49:19;11.30;99.90
7206;DHT22;3644;53.480;10.004;2024-02-21T00:51:45;11.30;99.90
7206;DHT22;3644;53.480;10.004;2024-02-21T00:54:10;11.10;99.90
7206;DHT22;3644;53.480;10.004;2024-02-21T00:56:35;11.20;99.90
7206;DHT22;3644;53.480;10.004;2024-02-21T00:59:01;11.20;99.90
7206;DHT22;3644;53.480;10.004;2024-02-21T01:01:26;11.20;99.90
7206;DHT22;3644;53.480;10.004;2024-02-21T01:03:52;11.20;99.90
7206;DHT22;3644;53.480;10.004;2024-02-21T01:06:19;11.20;99.90
7206;DHT22;3644;53.480;10.004;2024-02-21T01:08:46;11.10;99.90
7206;DHT22;3644;53.480;10.004;2024-02-21T01:11:13;10.90;99.90
7206;DHT22;3644;53.480;10.004;2024-02-21T01:13:39;11.00;99.90
7206;DHT22;3644;53.480;10.004;2024-02-21T01:16:04;10.90;99.90
7206;DHT22;3644;53.480;10.004;2024-02-21T01:18:34;10.80;99.90
7206;DHT22;3644;53.480;10.004;2024-02-21T01:21:00;10.90;99.90
7206;DHT22;3644;53.480;10.004;2024-02-21T01:23:25;11.10;99.90
7206;DHT22;3644;53.480;10.004;2024-02-21T01:25:51;11.30;99.90
7206;DHT22;3644;53.480;10.004;2024-02-21T01:28:20;11.30;99.90
7206;DHT22;3644;53.480;10.004;2024-02-21T01:30:46;11.30;99.90
7206;DHT22;3644;53.480;10.004;2024-02-21T01:33:11;11.00;99.90
7206;DHT22;3644;53.480;10.004;2024-02-21T01:35:37;10.90;99.90
7206;DHT22;3644;53.480;10.004;2024-02-21T01:38:02;11.00;99.90
7206;DHT22;3644;53.480;10.004;2024-02-21T01:40:28;11.10;99.90
7206;DHT22;3644;53.480;10.004;2024-02-21T01:42:55;11.00;99.90
7206;DHT22;3644;53.480;10.004;2024-02-21T01:45:21;11.20;99.90
7206;DHT22;3644;53.480;10.004;2024-02-21T01:47:47;11.20;99.90
7206;DHT22;3644;53.480;10.004;2024-02-21T01:50:14;11.20;99.90
7206;DHT22;3644;53.480;10.004;2024-02-21T01:52:41;11.40;99.90
7206;DHT22;3644;53.480;10.004;2024-02-21T01:55:08;11.30;99.90
7206;DHT22;3644;53.480;10.004;2024-02-21T01:57:34;11.20;99.90
7206;DHT22;3644;53.480;10.004;2024-02-21T02:00:00;11.30;99.90
7206;DHT22;3644;53.480;10.004;2024-02-21T02:02:26;11.30;99.90
7206;DHT22;3644;53.480;10.004;2024-02-21T02:04:52;11.00;99.90
7206;DHT22;3644;53.480;10.004;2024-02-21T02:07:18;11.00;99.90
7206;DHT22;3644;53.480;10.004;2024-02-21T02:09:43;11.00;99.90
7206;DHT22;3644;53.480;10.004;2024-02-21T02:12:09;11.00;99.90
7206;DHT22;3644;53.480;10.004;2024-02-21T02:14:34;11.20;99.90
7206;DHT22;3644;53.480;10.004;2024-02-21T02:17:00;11.20;99.90
7206;DHT22;3644;53.480;10.004;2024-02-21T02:19:25;11.30;99.90
7206;DHT22;3644;53.480;10.004;2024-02-21T02:21:54;11.30;99.90
7206;DHT22;3644;53.480;10.004;2024-02-21T02:24:24;11.20;99.90
7206;DHT22;3644;53.480;10.004;2024-02-21T02:26:51;11.20;99.90
7206;DHT22;3644;53.480;10.004;2024-02-21T02:29:17;11.20;99.90
7206;DHT22;3644;53.480;10.004;2024-02-21T02:31:42;11.30;99.90
7206;DHT22;3644;53.480;10.004;2024-02-21T02:34:08;11.40;99.90
7206;DHT22;3644;53.480;10.004;2024-02-21T02:36:33;11.30;99.90
7206;DHT22;3644;53.480;10.004;2024-02-21T02:38:59;11.30;99.90
7206;DHT22;3644;53.480;10.004;2024-02-21T02:41:25;11.50;99.90
7206;DHT22;3644;53.480;10.004;2024-02-21T02:43:50;11.40;99.90
7206;DHT22;3644;53.480;10.004;2024-02-21T02:46:16;11.50;99.90
7206;DHT22;3644;53.480;10.004;2024-02-21T02:48:41;11.50;99.90
7206;DHT22;3644;53.480;10.004;2024-02-21T02:51:07;11.50;99.90
7206;DHT22;3644;53.480;10.004;2024-02-21T02:53:32;11.60;99.90
7206;DHT22;3644;53.480;10.004;2024-02-21T02:55:58;11.60;99.90
7206;DHT22;3644;53.480;10.004;2024-02-21T02:58:23;11.40;99.90
7206;DHT22;3644;53.480;10.004;2024-02-21T03:00:49;11.20;99.90
7206;DHT22;3644;53.480;10.004;2024-02-21T03:03:14;11.40;99.90
7206;DHT22;3644;53.480;10.004;2024-02-21T03:05:40;11.30;99.90
7206;DHT22;3644;53.480;10.004;2024-02-21T03:08:05;11.20;99.90
7206;DHT22;3644;53.480;10.004;2024-02-21T03:10:33;11.40;99.90
7206;DHT22;3644;53.480;10.004;2024-02-21T03:12:58;11.30;99.90
7206;DHT22;3644;53.480;10.004;2024-02-21T03:15:24;11.40;99.90
7206;DHT22;3644;53.480;10.004;2024-02-21T03:17:49;11.20;99.90
7206;DHT22;3644;53.480;10.004;2024-02-21T03:20:15;11.30;99.90
7206;DHT22;3644;53.480;10.004;2024-02-21T03:22:41;11.40;99.90
7206;DHT22;3644;53.480;10.004;2024-02-21T03:25:07;11.20;99.90
7206;DHT22;3644;53.480;10.004;2024-02-21T03:27:33;11.20;99.90
7206;DHT22;3644;53.480;10.004;2024-02-21T03:29:59;11.10;99.90
7206;DHT22;3644;53.480;10.004;2024-02-21T03:32:24;11.30;99.90
7206;DHT22;3644;53.480;10.004;2024-02-21T03:34:50;11.30;99.90
7206;DHT22;3644;53.480;10.004;2024-02-21T03:37:15;11.10;99.90
7206;DHT22;3644;53.480;10.004;2024-02-21T03:39:41;11.10;99.90
7206;DHT22;3644;53.480;10.004;2024-02-21T03:42:07;11.10;99.90
7206;DHT22;3644;53.480;10.004;2024-02-21T03:44:32;11.10;99.90
7206;DHT22;3644;53.480;10.004;2024-02-21T03:46:59;11.00;99.90
7206;DHT22;3644;53.480;10.004;2024-02-21T03:49:25;11.20;99.90
7206;DHT22;3644;53.480;10.004;2024-02-21T03:51:50;11.20;99.90
7206;DHT22;3644;53.480;10.004;2024-02-21T03:54:16;11.10;99.90
7206;DHT22;3644;53.480;10.004;2024-02-21T03:56:41;11.10;99.90
7206;DHT22;3644;53.480;10.004;2024-02-21T03:59:07;11.10;99.90
7206;DHT22;3644;53.480;10.004;2024-02-21T04:01:34;11.10;99.90
7206;DHT22;3644;53.480;10.004;2024-02-21T04:03:59;11.20;99.90
7206;DHT22;3644;53.480;10.004;2024-02-21T04:06:25;11.20;99.90
7206;DHT22;3644;53.480;10.004;2024-02-21T04:08:50;11.30;99.90
7206;DHT22;3644;53.480;10.004;2024-02-21T04:11:15;11.40;99.90
7206;DHT22;3644;53.480;10.004;2024-02-21T04:13:42;11.40;99.90
7206;DHT22;3644;53.480;10.004;2024-02-21T04:16:08;11.20;99.90
7206;DHT22;3644;53.480;10.004;2024-02-21T04:18:33;11.10;99.90
7206;DHT22;3644;53.480;10.004;2024-02-21T04:20:59;11.10;99.90
7206;DHT22;3644;53.480;10.004;2024-02-21T04:23:24;11.20;99.90
7206;DHT22;3644;53.480;10.004;2024-02-21T04:25:50;11.10;99.90
7206;DHT22;3644;53.480;10.004;2024-02-21T04:28:15;11.20;99.90
7206;DHT22;3644;53.480;10.004;2024-02-21T04:30:41;11.30;99.90
7206;DHT22;3644;53.480;10.004;2024-02-21T04:33:06;11.30;99.90
7206;DHT22;3644;53.480;10.004;2024-02-21T04:35:32;11.30;99.90
7206;DHT22;3644;53.480;10.004;2024-02-21T04:37:57;11.20;99.90
7206;DHT22;3644;53.480;10.004;2024-02-21T04:40:22;11.30;99.90
7206;DHT22;3644;53.480;10.004;2024-02-21T04:42:48;11.10;99.90
7206;DHT22;3644;53.480;10.004;2024-02-21T04:45:13;11.10;99.90
7206;DHT22;3644;53.480;10.004;2024-02-21T04:47:39;11.10;99.90
7206;DHT22;3644;53.480;10.004;2024-02-21T04:50:05;11.00;99.90
7206;DHT22;3644;53.480;10.004;2024-02-21T04:52:31;11.00;99.90
7206;DHT22;3644;53.480;10.004;2024-02-21T04:54:56;11.00;99.90
7206;DHT22;3644;53.480;10.004;2024-02-21T04:57:22;11.00;99.90
7206;DHT22;3644;53.480;10.004;2024-02-21T04:59:47;10.90;99.90
7206;DHT22;3644;53.480;10.004;2024-02-21T05:02:13;10.80;99.90
7206;DHT22;3644;53.480;10.004;2024-02-21T05:04:39;10.80;99.90
7206;DHT22;3644;53.480;10.004;2024-02-21T05:07:06;10.90;99.90
7206;DHT22;3644;53.480;10.004;2024-02-21T05:09:32;10.90;99.90
7206;DHT22;3644;53.480;10.004;2024-02-21T05:11:57;10.80;99.90
7206;DHT22;3644;53.480;10.004;2024-02-21T05:14:26;10.70;99.90
7206;DHT22;3644;53.480;10.004;2024-02-21T05:16:55;10.80;99.90
7206;DHT22;3644;53.480;10.004;2024-02-21T05:19:20;10.90;99.90
7206;DHT22;3644;53.480;10.004;2024-02-21T05:21:46;10.90;99.90
7206;DHT22;3644;53.480;10.004;2024-02-21T05:24:12;10.90;99.90
7206;DHT22;3644;53.480;10.004;2024-02-21T05:26:37;11.00;99.90
7206;DHT22;3644;53.480;10.004;2024-02-21T05:29:03;11.10;99.90
7206;DHT22;3644;53.480;10.004;2024-02-21T05:34:18;11.00;99.90
7206;DHT22;3644;53.480;10.004;2024-02-21T05:36:44;11.00;99.90
7206;DHT22;3644;53.480;10.004;2024-02-21T05:39:10;11.10;99.90
7206;DHT22;3644;53.480;10.004;2024-02-21T05:41:35;11.30;99.90
7206;DHT22;3644;53.480;10.004;2024-02-21T05:44:01;11.20;99.90
7206;DHT22;3644;53.480;10.004;2024-02-21T05:46:26;10.80;99.90
7206;DHT22;3644;53.480;10.004;2024-02-21T05:48:52;10.70;99.90
7206;DHT22;3644;53.480;10.004;2024-02-21T05:51:17;10.70;99.90
7206;DHT22;3644;53.480;10.004;2024-02-21T05:53:43;10.80;99.90
7206;DHT22;3644;53.480;10.004;2024-02-21T05:56:11;10.80;99.90
7206;DHT22;3644;53.480;10.004;2024-02-21T05:58:37;10.90;99.90
7206;DHT22;3644;53.480;10.004;2024-02-21T06:01:03;10.70;99.90
7206;DHT22;3644;53.480;10.004;2024-02-21T06:03:29;10.80;99.90
7206;DHT22;3644;53.480;10.004;2024-02-21T06:05:55;10.80;99.90
7206;DHT22;3644;53.480;10.004;2024-02-21T06:08:21;10.90;99.90
7206;DHT22;3644;53.480;10.004;2024-02-21T06:10:46;10.60;99.90
7206;DHT22;3644;53.480;10.004;2024-02-21T06:13:13;10.70;99.90
7206;DHT22;3644;53.480;10.004;2024-02-21T06:15:39;10.70;99.90
7206;DHT22;3644;53.480;10.004;2024-02-21T06:18:04;10.80;99.90
7206;DHT22;3644;53.480;10.004;2024-02-21T06:20:30;10.80;99.90
7206;DHT22;3644;53.480;10.004;2024-02-21T06:22:55;10.70;99.90
7206;DHT22;3644;53.480;10.004;2024-02-21T06:25:21;10.80;99.90
7206;DHT22;3644;53.480;10.004;2024-02-21T06:27:46;10.70;99.90
7206;DHT22;3644;53.480;10.004;2024-02-21T06:30:12;10.80;99.90
7206;DHT22;3644;53.480;10.004;2024-02-21T06:32:38;10.80;99.90
7206;DHT22;3644;53.480;10.004;2024-02-21T06:35:04;10.80;99.90
7206;DHT22;3644;53.480;10.004;2024-02-21T06:37:30;10.90;99.90
7206;DHT22;3644;53.480;10.004;2024-02-21T06:39:57;10.90;99.90
7206;DHT22;3644;53.480;10.004;2024-02-21T06:42:24;10.70;99.90
7206;DHT22;3644;53.480;10.004;2024-02-21T06:44:50;10.80;99.90
7206;DHT22;3644;53.480;10.004;2024-02-21T06:47:15;10.90;99.90
7206;DHT22;3644;53.480;10.004;2024-02-21T06:49:41;10.80;99.90
7206;DHT22;3644;53.480;10.004;2024-02-21T06:52:07;11.00;99.90
7206;DHT22;3644;53.480;10.004;2024-02-21T06:54:32;11.00;99.90
7206;DHT22;3644;53.480;10.004;2024-02-21T06:56:58;10.80;99.90
7206;DHT22;3644;53.480;10.004;2024-02-21T06:59:23;10.70;99.90
7206;DHT22;3644;53.480;10.004;2024-02-21T07:01:51;10.70;99.90
7206;DHT22;3644;53.480;10.004;2024-02-21T07:04:16;10.60;99.90
7206;DHT22;3644;53.480;10.004;2024-02-21T07:06:42;10.60;99.90
7206;DHT22;3644;53.480;10.004;2024-02-21T07:09:07;10.70;99.90
7206;DHT22;3644;53.480;10.004;2024-02-21T07:11:33;10.80;99.90
7206;DHT22;3644;53.480;10.004;2024-02-21T07:13:58;10.90;99.90
7206;DHT22;3644;53.480;10.004;2024-02-21T07:16:24;11.10;99.90
7206;DHT22;3644;53.480;10.004;2024-02-21T07:18:49;11.10;99.90
7206;DHT22;3644;53.480;10.004;2024-02-21T07:21:15;11.20;99.90
7206;DHT22;3644;53.480;10.004;2024-02-21T07:23:41;11.10;99.90
7206;DHT22;3644;53.480;10.004;2024-02-21T07:26:07;11.00;99.90
7206;DHT22;3644;53.480;10.004;2024-02-21T07:28:33;11.20;99.90
7206;DHT22;3644;53.480;10.004;2024-02-21T07:30:59;11.30;99.90
7206;DHT22;3644;53.480;10.004;2024-02-21T07:33:25;11.40;99.90
7206;DHT22;3644;53.480;10.004;2024-02-21T07:35:50;11.40;99.90
7206;DHT22;3644;53.480;10.004;2024-02-21T07:38:16;11.30;99.90
7206;DHT22;3644;53.480;10.004;2024-02-21T07:40:44;11.00;99.90
7206;DHT22;3644;53.480;10.004;2024-02-21T07:43:10;11.20;99.90
7206;DHT22;3644;53.480;10.004;2024-02-21T07:45:35;11.40;99.90
7206;DHT22;3644;53.480;10.004;2024-02-21T07:48:01;11.50;99.90
7206;DHT22;3644;53.480;10.004;2024-02-21T07:50:27;11.40;99.90
7206;DHT22;3644;53.480;10.004;2024-02-21T07:52:53;11.10;99.90
7206;DHT22;3644;53.480;10.004;2024-02-21T07:55:18;11.20;99.90
7206;DHT22;3644;53.480;10.004;2024-02-21T07:57:44;11.40;99.90
7206;DHT22;3644;53.480;10.004;2024-02-21T08:00:09;11.50;99.90
7206;DHT22;3644;53.480;10.004;2024-02-21T08:02:40;11.40;99.90
7206;DHT22;3644;53.480;10.004;2024-02-21T08:05:08;11.30;99.90
7206;DHT22;3644;53.480;10.004;2024-02-21T08:07:33;11.50;99.90
7206;DHT22;3644;53.480;10.004;2024-02-21T08:09:59;11.60;99.90
7206;DHT22;3644;53.480;10.004;2024-02-21T08:12:24;11.70;99.90
7206;DHT22;3644;53.480;10.004;2024-02-21T08:14:49;11.70;99.90
7206;DHT22;3644;53.480;10.004;2024-02-21T08:17:15;11.80;99.90
7206;DHT22;3644;53.480;10.004;2024-02-21T08:19:40;11.80;99.90
7206;DHT22;3644;53.480;10.004;2024-02-21T08:22:06;11.80;99.90
7206;DHT22;3644;53.480;10.004;2024-02-21T08:24:32;11.70;99.90
7206;DHT22;3644;53.480;10.004;2024-02-21T08:26:57;11.50;99.90
7206;DHT22;3644;53.480;10.004;2024-02-21T08:29:23;11.50;99.90
7206;DHT22;3644;53.480;10.004;2024-02-21T08:31:48;11.60;99.90
7206;DHT22;3644;53.480;10.004;2024-02-21T08:34:14;11.40;99.90
7206;DHT22;3644;53.480;10.004;2024-02-21T08:36:40;11.40;99.90
7206;DHT22;3644;53.480;10.004;2024-02-21T08:39:05;11.50;99.90
7206;DHT22;3644;53.480;10.004;2024-02-21T08:41:31;11.30;99.90
7206;DHT22;3644;53.480;10.004;2024-02-21T08:43:57;11.40;99.90
7206;DHT22;3644;53.480;10.004;2024-02-21T08:46:23;11.50;99.90
7206;DHT22;3644;53.480;10.004;2024-02-21T08:48:50;11.50;99.90
7206;DHT22;3644;53.480;10.004;2024-02-21T08:51:16;11.30;99.90
7206;DHT22;3644;53.480;10.004;2024-02-21T08:53:42;11.20;99.90
7206;DHT22;3644;53.480;10.004;2024-02-21T08:56:07;11.20;99.90
7206;DHT22;3644;53.480;10.004;2024-02-21T08:58:34;11.40;99.90
7206;DHT22;3644;53.480;10.004;2024-02-21T09:01:00;11.50;99.90
7206;DHT22;3644;53.480;10.004;2024-02-21T09:03:26;11.30;99.90
7206;DHT22;3644;53.480;10.004;2024-02-21T09:05:51;11.40;99.90
7206;DHT22;3644;53.480;10.004;2024-02-21T09:08:17;11.40;99.90
7206;DHT22;3644;53.480;10.004;2024-02-21T09:10:43;11.40;99.90
7206;DHT22;3644;53.480;10.004;2024-02-21T09:13:09;11.40;99.90
7206;DHT22;3644;53.480;10.004;2024-02-21T09:15:34;11.50;99.90
7206;DHT22;3644;53.480;10.004;2024-02-21T09:18:00;11.40;99.90
7206;DHT22;3644;53.480;10.004;2024-02-21T09:20:25;11.30;99.90
7206;DHT22;3644;53.480;10.004;2024-02-21T09:22:51;11.40;99.90
7206;DHT22;3644;53.480;10.004;2024-02-21T09:25:18;11.30;99.90
7206;DHT22;3644;53.480;10.004;2024-02-21T09:27:46;11.50;99.90
7206;DHT22;3644;53.480;10.004;2024-02-21T09:30:12;11.40;99.90
7206;DHT22;3644;53.480;10.004;2024-02-21T09:32:38;11.60;99.90
7206;DHT22;3644;53.480;10.004;2024-02-21T09:35:04;11.70;99.90
7206;DHT22;3644;53.480;10.004;2024-02-21T09:37:30;11.80;99.90
7206;DHT22;3644;53.480;10.004;2024-02-21T09:39:56;12.00;99.90
7206;DHT22;3644;53.480;10.004;2024-02-21T09:42:22;12.00;99.90
7206;DHT22;3644;53.480;10.004;2024-02-21T09:44:50;11.90;99.90
7206;DHT22;3644;53.480;10.004;2024-02-21T09:47:22;11.80;99.90
7206;DHT22;3644;53.480;10.004;2024-02-21T09:49:48;11.60;99.90
7206;DHT22;3644;53.480;10.004;2024-02-21T09:52:15;11.60;99.90
7206;DHT22;3644;53.480;10.004;2024-02-21T09:54:41;11.70;99.90
7206;DHT22;3644;53.480;10.004;2024-02-21T09:57:09;11.70;99.90
7206;DHT22;3644;53.480;10.004;2024-02-21T09:59:35;11.60;99.90
7206;DHT22;3644;53.480;10.004;2024-02-21T10:02:01;11.80;99.90
7206;DHT22;3644;53.480;10.004;2024-02-21T10:04:27;11.90;99.90
7206;DHT22;3644;53.480;10.004;2024-02-21T10:06:56;11.70;99.90
7206;DHT22;3644;53.480;10.004;2024-02-21T10:09:28;12.00;99.90
7206;DHT22;3644;53.480;10.004;2024-02-21T10:11:55;12.00;99.90
7206;DHT22;3644;53.480;10.004;2024-02-21T10:14:21;12.00;99.90
7206;DHT22;3644;53.480;10.004;2024-02-21T10:16:57;12.10;99.90
7206;DHT22;3644;53.480;10.004;2024-02-21T10:19:25;11.90;99.90
7206;DHT22;3644;53.480;10.004;2024-02-21T10:22:07;12.00;99.90
7206;DHT22;3644;53.480;10.004;2024-02-21T10:24:34;12.10;99.90
7206;DHT22;3644;53.480;10.004;2024-02-21T10:27:07;12.20;99.90
7206;DHT22;3644;53.480;10.004;2024-02-21T10:29:39;12.10;99.90
7206;DHT22;3644;53.480;10.004;2024-02-21T10:32:06;12.10;99.90
7206;DHT22;3644;53.480;10.004;2024-02-21T10:34:32;12.00;99.90
7206;DHT22;3644;53.480;10.004;2024-02-21T10:37:05;12.20;99.90
7206;DHT22;3644;53.480;10.004;2024-02-21T10:39:32;12.30;99.90
7206;DHT22;3644;53.480;10.004;2024-02-21T10:42:00;12.40;99.90
7206;DHT22;3644;53.480;10.004;2024-02-21T10:44:30;12.40;99.90
7206;DHT22;3644;53.480;10.004;2024-02-21T10:46:57;12.20;99.90
7206;DHT22;3644;53.480;10.004;2024-02-21T10:49:24;12.00;99.90
7206;DHT22;3644;53.480;10.004;2024-02-21T10:54:55;12.20;99.90
7206;DHT22;3644;53.480;10.004;2024-02-21T10:57:25;12.30;99.90
7206;DHT22;3644;53.480;10.004;2024-02-21T10:59:53;12.40;99.90
7206;DHT22;3644;53.480;10.004;2024-02-21T11:02:20;12.40;99.90
7206;DHT22;3644;53.480;10.004;2024-02-21T11:04:46;12.40;99.90
7206;DHT22;3644;53.480;10.004;2024-02-21T11:07:13;12.30;99.90
7206;DHT22;3644;53.480;10.004;2024-02-21T11:09:39;12.20;99.90
7206;DHT22;3644;53.480;10.004;2024-02-21T11:12:06;12.30;99.90
7206;DHT22;3644;53.480;10.004;2024-02-21T11:14:31;12.20;99.90
7206;DHT22;3644;53.480;10.004;2024-02-21T11:16:58;12.10;99.90
7206;DHT22;3644;53.480;10.004;2024-02-21T11:19:26;12.20;99.90
7206;DHT22;3644;53.480;10.004;2024-02-21T11:21:53;12.30;99.90
7206;DHT22;3644;53.480;10.004;2024-02-21T11:24:32;12.10;99.90
7206;DHT22;3644;53.480;10.004;2024-02-21T11:27:21;12.10;99.90
7206;DHT22;3644;53.480;10.004;2024-02-21T11:29:55;11.70;99.90
7206;DHT22;3644;53.480;10.004;2024-02-21T11:32:21;11.80;99.90
7206;DHT22;3644;53.480;10.004;2024-02-21T11:34:57;11.80;99.90
7206;DHT22;3644;53.480;10.004;2024-02-21T11:37:33;12.10;99.90
7206;DHT22;3644;53.480;10.004;2024-02-21T11:40:00;12.10;99.90
7206;DHT22;3644;53.480;10.004;2024-02-21T11:42:27;12.10;99.90
7206;DHT22;3644;53.480;10.004;2024-02-21T11:44:53;12.00;99.90
7206;DHT22;3644;53.480;10.004;2024-02-21T11:47:19;12.00;99.90
7206;DHT22;3644;53.480;10.004;2024-02-21T11:49:46;12.00;99.90
7206;DHT22;3644;53.480;10.004;2024-02-21T11:52:12;12.30;99.90
7206;DHT22;3644;53.480;10.004;2024-02-21T11:54:40;12.30;99.90
7206;DHT22;3644;53.480;10.004;2024-02-21T11:57:06;12.30;99.90
7206;DHT22;3644;53.480;10.004;2024-02-21T11:59:32;12.30;99.90
7206;DHT22;3644;53.480;10.004;2024-02-21T12:01:59;12.40;99.90
7206;DHT22;3644;53.480;10.004;2024-02-21T12:04:25;12.50;99.90
7206;DHT22;3644;53.480;10.004;2024-02-21T12:06:52;12.40;99.90
7206;DHT22;3644;53.480;10.004;2024-02-21T12:09:18;12.50;99.90
7206;DHT22;3644;53.480;10.004;2024-02-21T12:11:44;12.40;99.90
7206;DHT22;3644;53.480;10.004;2024-02-21T12:14:10;12.40;99.90
7206;DHT22;3644;53.480;10.004;2024-02-21T12:16:36;12.40;99.90
7206;DHT22;3644;53.480;10.004;2024-02-21T12:19:05;12.50;99.90
7206;DHT22;3644;53.480;10.004;2024-02-21T12:21:31;12.50;99.90
7206;DHT22;3644;53.480;10.004;2024-02-21T12:23:58;12.60;99.90
7206;DHT22;3644;53.480;10.004;2024-02-21T12:26:24;12.50;99.90
7206;DHT22;3644;53.480;10.004;2024-02-21T12:28:50;12.30;99.90
7206;DHT22;3644;53.480;10.004;2024-02-21T12:31:16;12.30;99.90
7206;DHT22;3644;53.480;10.004;2024-02-21T12:33:43;12.40;99.90
7206;DHT22;3644;53.480;10.004;2024-02-21T12:36:08;12.50;99.90
7206;DHT22;3644;53.480;10.004;2024-02-21T12:38:34;12.60;99.90
7206;DHT22;3644;53.480;10.004;2024-02-21T12:41:00;12.50;99.90
7206;DHT22;3644;53.480;10.004;2024-02-21T12:43:26;12.50;99.90
7206;DHT22;3644;53.480;10.004;2024-02-21T12:45:51;12.60;99.90
7206;DHT22;3644;53.480;10.004;2024-02-21T12:48:17;12.70;99.90
7206;DHT22;3644;53.480;10.004;2024-02-21T12:50:49;12.70;99.90
7206;DHT22;3644;53.480;10.004;2024-02-21T12:53:17;12.70;99.90
7206;DHT22;3644;53.480;10.004;2024-02-21T12:55:44;12.70;99.90
7206;DHT22;3644;53.480;10.004;2024-02-21T12:58:10;12.70;99.90
7206;DHT22;3644;53.480;10.004;2024-02-21T13:00:35;12.80;99.90
7206;DHT22;3644;53.480;10.004;2024-02-21T13:03:01;12.70;99.90
7206;DHT22;3644;53.480;10.004;2024-02-21T13:05:28;12.80;99.90
7206;DHT22;3644;53.480;10.004;2024-02-21T13:07:53;12.90;99.90
7206;DHT22;3644;53.480;10.004;2024-02-21T13:10:19;12.80;99.90
7206;DHT22;3644;53.480;10.004;2024-02-21T13:12:45;13.00;99.90
7206;DHT22;3644;53.480;10.004;2024-02-21T13:15:10;13.10;99.90
7206;DHT22;3644;53.480;10.004;2024-02-21T13:17:37;13.30;99.90
7206;DHT22;3644;53.480;10.004;2024-02-21T13:20:03;13.30;99.90
7206;DHT22;3644;53.480;10.004;2024-02-21T13:22:29;13.40;99.90
7206;DHT22;3644;53.480;10.004;2024-02-21T13:24:54;13.40;99.90
7206;DHT22;3644;53.480;10.004;2024-02-21T13:27:20;13.40;99.90
7206;DHT22;3644;53.480;10.004;2024-02-21T13:29:45;13.20;99.90
7206;DHT22;3644;53.480;10.004;2024-02-21T13:32:11;13.20;99.90
7206;DHT22;3644;53.480;10.004;2024-02-21T13:34:36;13.20;99.90
7206;DHT22;3644;53.480;10.004;2024-02-21T13:37:02;13.20;99.90
7206;DHT22;3644;53.480;10.004;2024-02-21T13:39:27;13.20;99.90
7206;DHT22;3644;53.480;10.004;2024-02-21T13:41:53;13.30;99.90
7206;DHT22;3644;53.480;10.004;2024-02-21T13:44:18;13.40;99.90
7206;DHT22;3644;53.480;10.004;2024-02-21T13:46:44;13.40;99.90
7206;DHT22;3644;53.480;10.004;2024-02-21T13:49:09;13.40;99.90
7206;DHT22;3644;53.480;10.004;2024-02-21T13:51:35;13.40;99.90
7206;DHT22;3644;53.480;10.004;2024-02-21T13:54:04;13.40;99.90
7206;DHT22;3644;53.480;10.004;2024-02-21T13:56:30;13.40;99.90
7206;DHT22;3644;53.480;10.004;2024-02-21T13:58:58;13.40;99.90
7206;DHT22;3644;53.480;10.004;2024-02-21T14:01:25;13.50;99.90
7206;DHT22;3644;53.480;10.004;2024-02-21T14:03:51;13.50;99.90
7206;DHT22;3644;53.480;10.004;2024-02-21T14:06:16;13.50;99.90
7206;DHT22;3644;53.480;10.004;2024-02-21T14:08:42;13.50;99.90
7206;DHT22;3644;53.480;10.004;2024-02-21T14:11:08;13.60;99.90
7206;DHT22;3644;53.480;10.004;2024-02-21T14:13:33;13.60;99.90
7206;DHT22;3644;53.480;10.004;2024-02-21T14:15:59;13.70;99.90
7206;DHT22;3644;53.480;10.004;2024-02-21T14:18:24;13.70;99.90
7206;DHT22;3644;53.480;10.004;2024-02-21T14:20:50;13.80;99.90
7206;DHT22;3644;53.480;10.004;2024-02-21T14:23:15;13.80;99.90
7206;DHT22;3644;53.480;10.004;2024-02-21T14:25:40;13.80;99.90
7206;DHT22;3644;53.480;10.004;2024-02-21T14:28:08;13.90;99.90
7206;DHT22;3644;53.480;10.004;2024-02-21T14:30:34;13.90;99.90
7206;DHT22;3644;53.480;10.004;2024-02-21T14:33:00;13.90;99.90
7206;DHT22;3644;53.480;10.004;2024-02-21T14:35:25;13.90;99.90
7206;DHT22;3644;53.480;10.004;2024-02-21T14:37:52;14.00;99.90
7206;DHT22;3644;53.480;10.004;2024-02-21T14:40:18;14.00;99.90
7206;DHT22;3644;53.480;10.004;2024-02-21T14:42:44;14.10;99.90
7206;DHT22;3644;53.480;10.004;2024-02-21T14:45:10;14.10;99.90
7206;DHT22;3644;53.480;10.004;2024-02-21T14:47:35;14.00;99.90
7206;DHT22;3644;53.480;10.004;2024-02-21T14:50:02;14.00;99.90
7206;DHT22;3644;53.480;10.004;2024-02-21T14:52:29;14.00;99.90
7206;DHT22;3644;53.480;10.004;2024-02-21T14:54:54;13.90;99.90
7206;DHT22;3644;53.480;10.004;2024-02-21T14:57:21;13.90;99.90
7206;DHT22;3644;53.480;10.004;2024-02-21T14:59:47;13.90;99.90
7206;DHT22;3644;53.480;10.004;2024-02-21T15:02:15;13.90;99.90
7206;DHT22;3644;53.480;10.004;2024-02-21T15:04:40;13.90;99.90
7206;DHT22;3644;53.480;10.004;2024-02-21T15:07:06;13.70;99.90
7206;DHT22;3644;53.480;10.004;2024-02-21T15:09:32;13.70;99.90
7206;DHT22;3644;53.480;10.004;2024-02-21T15:11:57;13.80;99.90
7206;DHT22;3644;53.480;10.004;2024-02-21T15:14:24;13.80;99.90
7206;DHT22;3644;53.480;10.004;2024-02-21T15:16:49;13.70;99.90
7206;DHT22;3644;53.480;10.004;2024-02-21T15:19:14;13.70;99.90
7206;DHT22;3644;53.480;10.004;2024-02-21T15:21:40;13.70;99.90
7206;DHT22;3644;53.480;10.004;2024-02-21T15:24:06;13.70;99.90
7206;DHT22;3644;53.480;10.004;2024-02-21T15:26:31;13.70;99.90
7206;DHT22;3644;53.480;10.004;2024-02-21T15:28:57;13.70;99.90
7206;DHT22;3644;53.480;10.004;2024-02-21T15:31:23;13.70;99.90
7206;DHT22;3644;53.480;10.004;2024-02-21T15:33:49;13.60;99.90
7206;DHT22;3644;53.480;10.004;2024-02-21T15:36:15;13.70;99.90
7206;DHT22;3644;53.480;10.004;2024-02-21T15:38:41;13.60;99.90
7206;DHT22;3644;53.480;10.004;2024-02-21T15:41:06;13.60;99.90
7206;DHT22;3644;53.480;10.004;2024-02-21T15:43:32;13.60;99.90